Time;durP1;ratioP1;P1;durP2;ratioP2;P2;SDS_P1;SDS_P2;PMS_P1;PMS_P2;Temp;Humidity;BMP_temperature;BMP_pressure;BME280_temperature;BME280_humidity;BME280_pressure;Samples;Min_cycle;Max_cycle;Signal;HPM_P1;HPM_P2
2023/07/14 00:00:10;;;;;;;2.33;1.13;;;;;;;;;;5030808;28;20933;-83
2023/07/14 00:02:37;;;;;;;2.00;1.10;;;;;;;;;;5029658;28;20537;-83
2023/07/14 00:05:05;;;;;;;2.37;1.30;;;;;;;;;;5029068;28;20529;-83
2023/07/14 00:07:33;;;;;;;2.57;1.47;;;;;;;;;;5030610;28;20477;-82
2023/07/14 00:10:01;;;;;;;2.50;1.50;;;;;;;;;;5029217;28;20475;-82
2023/07/14 00:12:28;;;;;;;2.33;1.40;;;;;;;;;;5027252;28;20566;-82
2023/07/14 00:14:55;;;;;;;2.20;1.13;;;;;;;;;;5011565;28;20882;-82
2023/07/14 00:17:22;;;;;;;2.00;1.13;;;;;;;;;;5021624;28;20486;-82
2023/07/14 00:19:50;;;;;;;2.10;1.20;;;;;;;;;;5011120;28;20527;-82
2023/07/14 00:22:17;;;;;;;2.00;1.00;;;;;;;;;;5015683;28;20550;-83
2023/07/14 00:24:46;;;;;;;2.30;1.07;;;;;;;;;;5014354;28;20451;-82
2023/07/14 00:27:17;;;;;;;3.03;1.70;;;;;;;;;;5026311;28;20882;-84
2023/07/14 00:29:46;;;;;;;2.03;1.33;;;;;;;;;;5018086;28;20999;-85
2023/07/14 00:32:16;;;;;;;2.17;1.07;;;;;;;;;;5030646;28;20502;-86
2023/07/14 00:34:43;;;;;;;2.73;1.20;;;;;;;;;;5016748;28;20946;-86
2023/07/14 00:37:11;;;;;;;2.07;1.07;;;;;;;;;;5029795;28;20497;-85
2023/07/14 00:39:38;;;;;;;2.20;1.20;;;;;;;;;;5026065;28;20489;-85
2023/07/14 00:42:10;;;;;;;2.20;1.40;;;;;;;;;;5023588;28;20992;-84
2023/07/14 00:44:37;;;;;;;2.47;1.40;;;;;;;;;;5034451;28;20478;-84
2023/07/14 00:47:06;;;;;;;2.40;1.30;;;;;;;;;;5015173;28;20542;-85
2023/07/14 00:49:35;;;;;;;2.53;1.30;;;;;;;;;;5019912;28;20469;-85
2023/07/14 00:52:05;;;;;;;2.50;1.50;;;;;;;;;;5032182;28;20533;-85
2023/07/14 00:54:34;;;;;;;2.20;1.20;;;;;;;;;;5019729;28;20625;-85
2023/07/14 00:57:01;;;;;;;2.00;1.23;;;;;;;;;;5027425;28;20530;-84
2023/07/14 00:59:33;;;;;;;3.00;1.43;;;;;;;;;;5031594;28;20933;-85
2023/07/14 01:02:23;;;;;;;3.57;1.40;;;;;;;;;;5023782;28;20479;-85
2023/07/14 01:04:52;;;;;;;2.00;0.97;;;;;;;;;;5033679;28;20514;-84
2023/07/14 01:07:21;;;;;;;2.20;1.30;;;;;;;;;;5020728;28;20966;-85
2023/07/14 01:09:49;;;;;;;2.23;1.20;;;;;;;;;;5025265;28;20921;-85
2023/07/14 01:12:20;;;;;;;2.00;1.20;;;;;;;;;;5013626;28;20535;-85
2023/07/14 01:14:51;;;;;;;2.40;1.30;;;;;;;;;;5028487;28;20817;-85
2023/07/14 01:17:19;;;;;;;2.67;1.37;;;;;;;;;;5024756;28;20543;-85
2023/07/14 01:19:50;;;;;;;2.10;1.07;;;;;;;;;;5012918;28;20458;-85
2023/07/14 01:22:21;;;;;;;8.20;1.93;;;;;;;;;;5014098;28;22093;-84
2023/07/14 01:24:54;;;;;;;2.83;1.30;;;;;;;;;;5045560;28;20447;-84
2023/07/14 01:27:24;;;;;;;2.40;1.20;;;;;;;;;;5031187;28;20952;-85
2023/07/14 01:29:52;;;;;;;2.53;1.27;;;;;;;;;;5028716;28;20469;-85
2023/07/14 01:32:20;;;;;;;3.63;1.70;;;;;;;;;;5024922;28;20635;-85
2023/07/14 01:34:48;;;;;;;2.13;1.10;;;;;;;;;;5032484;28;20881;-86
2023/07/14 01:37:16;;;;;;;2.33;1.20;;;;;;;;;;5014247;28;20997;-85
2023/07/14 01:39:44;;;;;;;2.20;1.37;;;;;;;;;;5013384;28;20566;-85
2023/07/14 01:42:11;;;;;;;3.43;1.60;;;;;;;;;;5013383;28;20439;-85
2023/07/14 01:44:40;;;;;;;3.17;1.67;;;;;;;;;;5013267;28;20538;-85
2023/07/14 01:47:09;;;;;;;2.20;1.43;;;;;;;;;;5021524;28;20478;-85
2023/07/14 01:49:38;;;;;;;2.10;1.30;;;;;;;;;;5014154;28;21049;-85
2023/07/14 01:52:07;;;;;;;2.60;1.10;;;;;;;;;;5012761;28;20495;-85
2023/07/14 01:54:36;;;;;;;1.90;1.17;;;;;;;;;;5031285;28;20461;-86
2023/07/14 01:57:05;;;;;;;2.73;1.40;;;;;;;;;;5030932;28;20882;-85
2023/07/14 01:59:34;;;;;;;2.30;1.20;;;;;;;;;;5020459;28;20989;-85
2023/07/14 02:02:06;;;;;;;2.07;1.27;;;;;;;;;;5019007;28;20525;-85
2023/07/14 02:04:34;;;;;;;2.93;1.40;;;;;;;;;;5017290;28;20444;-85
2023/07/14 02:07:02;;;;;;;1.90;1.10;;;;;;;;;;5019872;28;20541;-85
2023/07/14 02:09:31;;;;;;;2.40;1.40;;;;;;;;;;5032333;28;20466;-85
2023/07/14 02:11:59;;;;;;;1.80;1.00;;;;;;;;;;5031715;28;20473;-85
2023/07/14 02:14:29;;;;;;;2.77;1.40;;;;;;;;;;5029415;28;20502;-86
2023/07/14 02:17:00;;;;;;;1.90;1.00;;;;;;;;;;5019056;28;20480;-84
2023/07/14 02:19:29;;;;;;;2.20;1.20;;;;;;;;;;5029698;28;20521;-85
2023/07/14 02:21:56;;;;;;;2.33;0.90;;;;;;;;;;5022695;28;20482;-85
2023/07/14 02:24:25;;;;;;;2.73;1.57;;;;;;;;;;5028559;28;20538;-85
2023/07/14 02:26:56;;;;;;;2.40;1.50;;;;;;;;;;5030825;28;20485;-85
2023/07/14 02:29:23;;;;;;;2.90;1.23;;;;;;;;;;5014056;28;20477;-84
2023/07/14 02:31:53;;;;;;;2.10;1.40;;;;;;;;;;5014791;28;20545;-85
2023/07/14 02:34:21;;;;;;;1.80;1.00;;;;;;;;;;5024016;28;20547;-85
2023/07/14 02:37:00;;;;;;;2.00;1.20;;;;;;;;;;5012776;28;20447;-85
2023/07/14 02:39:31;;;;;;;7.60;1.30;;;;;;;;;;5012154;28;20447;-85
2023/07/14 02:42:00;;;;;;;2.30;1.10;;;;;;;;;;5012187;28;20491;-85
2023/07/14 02:44:28;;;;;;;2.67;1.20;;;;;;;;;;5013226;28;20499;-85
2023/07/14 02:46:58;;;;;;;3.00;1.20;;;;;;;;;;5030555;28;20461;-85
2023/07/14 02:49:25;;;;;;;2.10;1.20;;;;;;;;;;5032012;28;20500;-84
2023/07/14 02:51:53;;;;;;;2.70;1.50;;;;;;;;;;5031051;28;20474;-85
2023/07/14 02:54:23;;;;;;;2.13;1.20;;;;;;;;;;5031340;28;20501;-84
2023/07/14 02:56:51;;;;;;;2.33;1.20;;;;;;;;;;5011788;28;20452;-85
2023/07/14 02:59:19;;;;;;;2.00;1.10;;;;;;;;;;5013067;28;20455;-85
2023/07/14 03:01:46;;;;;;;2.40;1.50;;;;;;;;;;5018936;28;20538;-85
2023/07/14 03:04:13;;;;;;;2.57;1.40;;;;;;;;;;5022326;28;20529;-85
2023/07/14 03:06:41;;;;;;;4.10;1.40;;;;;;;;;;5027900;28;20481;-85
2023/07/14 03:09:08;;;;;;;1.83;1.17;;;;;;;;;;5021748;28;20479;-85
2023/07/14 03:11:37;;;;;;;2.03;0.83;;;;;;;;;;5011425;28;20483;-85
2023/07/14 03:14:05;;;;;;;2.53;1.37;;;;;;;;;;5027384;28;20478;-85
2023/07/14 03:16:33;;;;;;;3.80;1.53;;;;;;;;;;5018059;28;20448;-85
2023/07/14 03:19:00;;;;;;;2.47;1.40;;;;;;;;;;5030245;28;20482;-85
2023/07/14 03:21:27;;;;;;;2.30;1.47;;;;;;;;;;5030989;28;20525;-85
2023/07/14 03:23:54;;;;;;;2.37;1.40;;;;;;;;;;5019476;28;20555;-85
2023/07/14 03:26:22;;;;;;;3.10;1.40;;;;;;;;;;5029015;28;20526;-85
2023/07/14 03:28:50;;;;;;;3.03;1.17;;;;;;;;;;5031258;28;20977;-85
2023/07/14 03:31:17;;;;;;;2.37;1.40;;;;;;;;;;5028326;28;20514;-85
2023/07/14 03:33:45;;;;;;;2.13;1.10;;;;;;;;;;5051081;23;20525;-48
2023/07/14 03:36:13;;;;;;;2.20;1.20;;;;;;;;;;5050017;28;20484;-47
2023/07/14 03:38:42;;;;;;;3.93;1.07;;;;;;;;;;5050066;28;20545;-48
2023/07/14 03:41:09;;;;;;;2.50;1.17;;;;;;;;;;5046748;28;20430;-47
2023/07/14 03:43:36;;;;;;;2.20;1.03;;;;;;;;;;5030259;28;20525;-49
2023/07/14 03:46:06;;;;;;;2.40;1.50;;;;;;;;;;5033792;28;20445;-47
2023/07/14 03:48:33;;;;;;;2.83;1.47;;;;;;;;;;5050369;28;20465;-48
2023/07/14 03:51:03;;;;;;;2.63;1.10;;;;;;;;;;5049878;28;20561;-48
2023/07/14 03:53:31;;;;;;;4.03;1.60;;;;;;;;;;5044156;28;20537;-48
2023/07/14 03:55:58;;;;;;;2.10;1.20;;;;;;;;;;5050116;28;20529;-47
2023/07/14 03:58:27;;;;;;;2.97;1.40;;;;;;;;;;5050193;28;20544;-47
2023/07/14 04:00:59;;;;;;;3.13;1.30;;;;;;;;;;5050569;28;20843;-47
2023/07/14 04:03:28;;;;;;;2.87;1.20;;;;;;;;;;5037302;28;20545;-48
2023/07/14 04:05:55;;;;;;;1.90;1.13;;;;;;;;;;5047817;28;20532;-48
2023/07/14 04:08:23;;;;;;;2.57;1.40;;;;;;;;;;5041337;28;20550;-48
2023/07/14 04:10:50;;;;;;;1.93;1.17;;;;;;;;;;5052674;28;20577;-48
2023/07/14 04:13:17;;;;;;;2.20;1.30;;;;;;;;;;5044068;28;21006;-48
2023/07/14 04:15:44;;;;;;;2.10;1.30;;;;;;;;;;5035369;28;20477;-48
2023/07/14 04:18:12;;;;;;;3.03;1.60;;;;;;;;;;5046071;28;21028;-47
2023/07/14 04:20:40;;;;;;;2.30;1.20;;;;;;;;;;5052995;28;20463;-47
2023/07/14 04:23:08;;;;;;;2.33;1.30;;;;;;;;;;5047663;28;20446;-48
2023/07/14 04:25:35;;;;;;;2.50;1.13;;;;;;;;;;5053752;28;20550;-48
2023/07/14 04:28:03;;;;;;;2.17;1.30;;;;;;;;;;5051249;28;20465;-48
2023/07/14 04:30:30;;;;;;;2.43;1.50;;;;;;;;;;5033990;28;20477;-48
2023/07/14 04:32:57;;;;;;;2.33;1.20;;;;;;;;;;5035090;28;20569;-47
2023/07/14 04:35:25;;;;;;;2.47;1.20;;;;;;;;;;5035142;28;20885;-48
2023/07/14 04:37:53;;;;;;;2.43;1.40;;;;;;;;;;5045268;28;20541;-48
2023/07/14 04:40:21;;;;;;;2.13;1.30;;;;;;;;;;5044952;28;20516;-48
2023/07/14 04:42:48;;;;;;;2.70;1.10;;;;;;;;;;5054227;28;20477;-48
2023/07/14 04:45:16;;;;;;;3.73;1.70;;;;;;;;;;5051768;28;21041;-48
2023/07/14 04:47:44;;;;;;;2.87;1.37;;;;;;;;;;5051678;28;20515;-47
2023/07/14 04:50:11;;;;;;;2.50;1.27;;;;;;;;;;5045450;28;20561;-47
2023/07/14 04:52:38;;;;;;;3.00;1.20;;;;;;;;;;5033087;28;20478;-50
2023/07/14 04:55:08;;;;;;;3.03;1.30;;;;;;;;;;5042219;28;20533;-47
2023/07/14 04:57:35;;;;;;;2.23;1.10;;;;;;;;;;5044686;28;20573;-48
2023/07/14 05:00:02;;;;;;;2.40;1.03;;;;;;;;;;5046667;28;21044;-48
2023/07/14 05:02:29;;;;;;;2.17;1.20;;;;;;;;;;5033346;28;20485;-49
2023/07/14 05:05:10;;;;;;;1.80;0.87;;;;;;;;;;5038415;28;20883;-47
2023/07/14 05:07:37;;;;;;;2.20;0.93;;;;;;;;;;5039404;28;20466;-48
2023/07/14 05:10:05;;;;;;;2.27;1.20;;;;;;;;;;5044867;28;20477;-47
2023/07/14 05:12:33;;;;;;;2.27;1.27;;;;;;;;;;5044893;28;20474;-48
2023/07/14 05:15:03;;;;;;;1.90;1.10;;;;;;;;;;5034026;28;20525;-47
2023/07/14 05:17:30;;;;;;;3.17;1.60;;;;;;;;;;5039044;28;20537;-47
2023/07/14 05:19:57;;;;;;;1.80;1.20;;;;;;;;;;5041554;28;20474;-48
2023/07/14 05:22:25;;;;;;;2.17;1.30;;;;;;;;;;5042512;28;20526;-49
2023/07/14 05:24:52;;;;;;;2.60;1.07;;;;;;;;;;5039456;28;21002;-48
2023/07/14 05:27:19;;;;;;;2.00;1.20;;;;;;;;;;5032038;28;20550;-48
2023/07/14 05:29:49;;;;;;;1.90;1.07;;;;;;;;;;5033582;28;21014;-47
2023/07/14 05:32:17;;;;;;;2.23;1.30;;;;;;;;;;5047816;28;20890;-48
2023/07/14 05:34:44;;;;;;;2.10;1.13;;;;;;;;;;5049322;28;20445;-48
2023/07/14 05:37:12;;;;;;;2.60;1.40;;;;;;;;;;5048119;28;20549;-48
2023/07/14 05:39:39;;;;;;;3.80;1.77;;;;;;;;;;5045742;28;20460;-48
2023/07/14 05:42:07;;;;;;;2.60;1.57;;;;;;;;;;5037819;28;20530;-48
2023/07/14 05:44:34;;;;;;;2.27;1.37;;;;;;;;;;5033482;28;20534;-48
2023/07/14 05:47:02;;;;;;;2.30;1.40;;;;;;;;;;5040833;28;20478;-48
2023/07/14 05:49:30;;;;;;;2.63;1.47;;;;;;;;;;5041231;28;20437;-47
2023/07/14 05:51:57;;;;;;;2.77;1.43;;;;;;;;;;5044422;28;20588;-48
2023/07/14 05:54:25;;;;;;;2.60;1.30;;;;;;;;;;5037568;28;20451;-48
2023/07/14 05:56:53;;;;;;;3.10;1.47;;;;;;;;;;5051179;28;20477;-48
2023/07/14 05:59:21;;;;;;;2.07;1.40;;;;;;;;;;5050570;28;20454;-48
2023/07/14 06:01:48;;;;;;;3.13;1.37;;;;;;;;;;5050991;28;20549;-48
2023/07/14 06:04:17;;;;;;;2.80;1.37;;;;;;;;;;5035561;28;20606;-48
2023/07/14 06:06:44;;;;;;;2.27;1.30;;;;;;;;;;5036269;28;20477;-47
2023/07/14 06:09:13;;;;;;;5.27;1.37;;;;;;;;;;5032957;28;21053;-48
2023/07/14 06:11:41;;;;;;;2.10;1.33;;;;;;;;;;5042650;28;21066;-47
2023/07/14 06:14:09;;;;;;;2.30;1.10;;;;;;;;;;5031138;28;20477;-48
2023/07/14 06:16:36;;;;;;;2.40;1.10;;;;;;;;;;5031602;28;20457;-47
2023/07/14 06:19:04;;;;;;;2.10;0.93;;;;;;;;;;5040396;28;20523;-47
2023/07/14 06:21:33;;;;;;;2.23;1.00;;;;;;;;;;5050207;28;20500;-48
2023/07/14 06:24:00;;;;;;;2.70;1.23;;;;;;;;;;5036614;28;20578;-47
2023/07/14 06:26:28;;;;;;;2.33;0.80;;;;;;;;;;5031574;28;20975;-47
2023/07/14 06:28:55;;;;;;;2.83;1.10;;;;;;;;;;5030582;28;20472;-47
2023/07/14 06:31:23;;;;;;;2.10;1.23;;;;;;;;;;5040023;28;20477;-48
2023/07/14 06:33:50;;;;;;;2.67;1.50;;;;;;;;;;5049185;28;20453;-49
2023/07/14 06:36:17;;;;;;;2.23;1.30;;;;;;;;;;5048470;28;20536;-48
2023/07/14 06:38:46;;;;;;;5.50;1.40;;;;;;;;;;5031057;28;20554;-48
2023/07/14 06:41:13;;;;;;;2.90;1.50;;;;;;;;;;5032273;28;20522;-48
2023/07/14 06:43:40;;;;;;;3.07;1.53;;;;;;;;;;5039565;28;21015;-48
2023/07/14 06:46:07;;;;;;;3.30;2.10;;;;;;;;;;5034449;28;20525;-47
2023/07/14 06:48:35;;;;;;;2.97;1.40;;;;;;;;;;5035848;28;20474;-48
2023/07/14 06:51:02;;;;;;;2.83;1.30;;;;;;;;;;5048082;28;20556;-48
2023/07/14 06:53:30;;;;;;;2.00;1.00;;;;;;;;;;5036488;28;20446;-49
2023/07/14 06:55:59;;;;;;;2.47;1.40;;;;;;;;;;5038248;28;20997;-47
2023/07/14 06:58:26;;;;;;;3.30;1.43;;;;;;;;;;5051357;28;20467;-48
2023/07/14 07:00:55;;;;;;;2.30;1.33;;;;;;;;;;5044865;28;20949;-48
2023/07/14 07:03:22;;;;;;;2.83;1.60;;;;;;;;;;5037363;28;20477;-48
2023/07/14 07:05:50;;;;;;;4.43;1.50;;;;;;;;;;5043335;28;20473;-48
2023/07/14 07:08:18;;;;;;;2.63;1.10;;;;;;;;;;5031293;28;20550;-47
2023/07/14 07:10:45;;;;;;;2.30;1.53;;;;;;;;;;5031744;28;20888;-48
2023/07/14 07:13:14;;;;;;;3.87;1.50;;;;;;;;;;5049225;28;20473;-48
2023/07/14 07:15:41;;;;;;;2.30;1.53;;;;;;;;;;5047574;28;20508;-47
2023/07/14 07:18:09;;;;;;;3.17;1.90;;;;;;;;;;5050117;28;20829;-48
2023/07/14 07:20:37;;;;;;;3.80;1.53;;;;;;;;;;5041152;28;20541;-48
2023/07/14 07:23:04;;;;;;;3.20;1.50;;;;;;;;;;5049218;28;20532;-48
2023/07/14 07:25:31;;;;;;;2.53;1.67;;;;;;;;;;5033440;28;20840;-48
2023/07/14 07:27:59;;;;;;;2.83;1.23;;;;;;;;;;5050827;28;20553;-49
2023/07/14 07:30:27;;;;;;;2.47;1.40;;;;;;;;;;5040289;28;20529;-47
2023/07/14 07:32:55;;;;;;;2.80;1.50;;;;;;;;;;5046359;28;21088;-47
2023/07/14 07:35:22;;;;;;;2.60;1.83;;;;;;;;;;5050960;28;20533;-49
2023/07/14 07:37:49;;;;;;;2.40;1.40;;;;;;;;;;5050700;28;20904;-48
2023/07/14 07:40:16;;;;;;;5.63;1.60;;;;;;;;;;5049635;28;20534;-49
2023/07/14 07:42:43;;;;;;;3.30;1.67;;;;;;;;;;5050125;28;20525;-49
2023/07/14 07:45:11;;;;;;;3.20;1.27;;;;;;;;;;5050406;28;20537;-48
2023/07/14 07:47:40;;;;;;;3.60;1.40;;;;;;;;;;5037647;28;20473;-48
2023/07/14 07:50:08;;;;;;;2.30;1.30;;;;;;;;;;5046433;28;20537;-48
2023/07/14 07:52:35;;;;;;;3.70;1.60;;;;;;;;;;5050135;28;20567;-47
2023/07/14 07:55:03;;;;;;;2.60;1.30;;;;;;;;;;5050701;28;20853;-48
2023/07/14 07:57:30;;;;;;;2.60;1.37;;;;;;;;;;5050397;28;20633;-48
2023/07/14 07:59:58;;;;;;;2.50;1.30;;;;;;;;;;5050418;28;20453;-48
2023/07/14 08:02:25;;;;;;;2.80;1.37;;;;;;;;;;5050547;28;20488;-48
2023/07/14 08:04:54;;;;;;;2.27;1.40;;;;;;;;;;5050381;28;20541;-48
2023/07/14 08:07:21;;;;;;;3.03;1.70;;;;;;;;;;5050434;28;20837;-48
2023/07/14 08:09:50;;;;;;;2.00;1.40;;;;;;;;;;5050551;28;20524;-49
2023/07/14 08:12:17;;;;;;;2.40;1.43;;;;;;;;;;5050108;28;20473;-47
2023/07/14 08:14:51;;;;;;;4.90;1.77;;;;;;;;;;5050057;28;20540;-48
2023/07/14 08:17:18;;;;;;;3.30;1.30;;;;;;;;;;5050441;28;20552;-47
2023/07/14 08:19:46;;;;;;;3.60;1.93;;;;;;;;;;5050100;28;20450;-48
2023/07/14 08:22:14;;;;;;;3.60;1.43;;;;;;;;;;5050039;28;20857;-48
2023/07/14 08:24:41;;;;;;;2.70;2.00;;;;;;;;;;5050479;28;20528;-50
2023/07/14 08:27:09;;;;;;;2.60;1.20;;;;;;;;;;5050497;28;20521;-49
2023/07/14 08:29:36;;;;;;;2.50;1.30;;;;;;;;;;5050445;28;20541;-48
2023/07/14 08:32:03;;;;;;;2.70;1.33;;;;;;;;;;5050125;28;20548;-48
2023/07/14 08:34:31;;;;;;;3.10;1.20;;;;;;;;;;5050115;28;20540;-50
2023/07/14 08:36:58;;;;;;;2.87;1.20;;;;;;;;;;5049933;28;20524;-48
2023/07/14 08:39:27;;;;;;;3.67;1.80;;;;;;;;;;5050352;28;20536;-47
2023/07/14 08:41:58;;;;;;;3.43;1.50;;;;;;;;;;5049960;28;20438;-48
2023/07/14 08:44:32;;;;;;;3.07;1.27;;;;;;;;;;5059226;28;20542;-49
2023/07/14 08:47:03;;;;;;;2.67;1.80;;;;;;;;;;5069989;28;20536;-48
2023/07/14 08:49:33;;;;;;;2.43;1.50;;;;;;;;;;5069881;28;20523;-47
2023/07/14 08:52:02;;;;;;;3.00;1.83;;;;;;;;;;5069817;28;20512;-47
2023/07/14 08:54:38;;;;;;;2.20;1.57;;;;;;;;;;5071739;28;20448;-48
2023/07/14 08:57:07;;;;;;;2.40;1.17;;;;;;;;;;5073566;28;20531;-49
2023/07/14 08:59:36;;;;;;;5.40;1.57;;;;;;;;;;5073496;28;20520;-48
2023/07/14 09:02:05;;;;;;;2.50;1.37;;;;;;;;;;5073697;28;20432;-49
2023/07/14 09:04:36;;;;;;;2.10;1.00;;;;;;;;;;5073417;28;20468;-48
2023/07/14 09:07:03;;;;;;;2.53;1.63;;;;;;;;;;5073371;28;20528;-48
2023/07/14 09:09:33;;;;;;;2.50;1.63;;;;;;;;;;5073251;28;20783;-48
2023/07/14 09:12:04;;;;;;;2.93;1.60;;;;;;;;;;5073137;28;21090;-48
2023/07/14 09:14:43;;;;;;;3.37;1.80;;;;;;;;;;5073110;28;20528;-49
2023/07/14 09:17:14;;;;;;;2.50;1.27;;;;;;;;;;5072953;28;20529;-48
2023/07/14 09:19:44;;;;;;;3.17;1.30;;;;;;;;;;5073704;28;20472;-48
2023/07/14 09:22:15;;;;;;;3.50;1.30;;;;;;;;;;5073401;28;20444;-48
2023/07/14 09:24:48;;;;;;;3.90;1.27;;;;;;;;;;5073198;28;20536;-49
2023/07/14 09:27:19;;;;;;;3.90;1.70;;;;;;;;;;5072928;28;20540;-49
2023/07/14 09:29:47;;;;;;;3.73;1.43;;;;;;;;;;5073027;28;20448;-50
2023/07/14 09:32:20;;;;;;;3.00;1.70;;;;;;;;;;5072917;28;20567;-48
2023/07/14 09:34:54;;;;;;;3.13;1.73;;;;;;;;;;5072001;28;20887;-48
2023/07/14 09:37:22;;;;;;;2.30;1.47;;;;;;;;;;5072919;28;20837;-49
2023/07/14 09:40:04;;;;;;;3.90;1.50;;;;;;;;;;5073017;28;20531;-47
2023/07/14 09:42:34;;;;;;;2.50;1.40;;;;;;;;;;5072792;28;20497;-50
2023/07/14 09:45:03;;;;;;;2.67;1.80;;;;;;;;;;5072893;28;20520;-49
2023/07/14 09:47:30;;;;;;;3.40;1.50;;;;;;;;;;5055881;22;20486;-85
2023/07/14 09:49:57;;;;;;;2.50;1.30;;;;;;;;;;5035907;28;20489;-84
2023/07/14 09:52:25;;;;;;;2.60;1.40;;;;;;;;;;5034792;28;20478;-84
2023/07/14 09:54:55;;;;;;;3.30;1.53;;;;;;;;;;5035207;28;20451;-85
2023/07/14 09:57:23;;;;;;;2.43;1.27;;;;;;;;;;5020115;28;20499;-85
2023/07/14 09:59:52;;;;;;;3.90;1.77;;;;;;;;;;5035560;23;20536;-56
2023/07/14 10:02:20;;;;;;;2.27;1.53;;;;;;;;;;5032713;28;20879;-54
2023/07/14 10:04:48;;;;;;;2.60;1.47;;;;;;;;;;5032237;28;20729;-54
2023/07/14 10:07:29;;;;;;;2.80;1.40;;;;;;;;;;5020395;28;20546;-56
2023/07/14 10:09:58;;;;;;;2.57;1.60;;;;;;;;;;5012604;28;20497;-55
2023/07/14 10:12:26;;;;;;;2.53;1.43;;;;;;;;;;5012681;28;20518;-55
2023/07/14 10:14:54;;;;;;;2.20;1.30;;;;;;;;;;5013143;28;20443;-54
2023/07/14 10:17:24;;;;;;;2.37;1.47;;;;;;;;;;5012782;28;20459;-55
2023/07/14 10:19:52;;;;;;;2.80;1.47;;;;;;;;;;5011998;28;20471;-54
2023/07/14 10:22:20;;;;;;;3.97;2.00;;;;;;;;;;5012715;28;20522;-55
2023/07/14 10:24:47;;;;;;;3.10;1.80;;;;;;;;;;5012316;28;21028;-55
2023/07/14 10:27:18;;;;;;;2.43;1.37;;;;;;;;;;5012615;28;20555;-55
2023/07/14 10:29:47;;;;;;;2.40;1.47;;;;;;;;;;5010782;28;20980;-55
2023/07/14 10:32:20;;;;;;;3.30;1.67;;;;;;;;;;5001674;28;20470;-55
2023/07/14 10:34:53;;;;;;;3.20;1.63;;;;;;;;;;4998479;28;20475;-55
2023/07/14 10:37:24;;;;;;;2.50;1.40;;;;;;;;;;5002049;28;20546;-55
2023/07/14 10:39:53;;;;;;;2.70;1.80;;;;;;;;;;5002022;28;20505;-55
2023/07/14 10:42:23;;;;;;;2.83;1.40;;;;;;;;;;5008531;28;20559;-54
2023/07/14 10:44:51;;;;;;;2.53;1.30;;;;;;;;;;5009593;28;20447;-54
2023/07/14 10:47:24;;;;;;;3.17;1.80;;;;;;;;;;5011690;28;20459;-55
2023/07/14 10:49:54;;;;;;;3.37;1.70;;;;;;;;;;5009416;28;21034;-54
2023/07/14 10:52:25;;;;;;;2.37;1.40;;;;;;;;;;5010697;28;20550;-54
2023/07/14 10:54:54;;;;;;;2.93;1.90;;;;;;;;;;5010981;28;20618;-55
2023/07/14 10:57:36;;;;;;;2.43;1.30;;;;;;;;;;5011692;28;21019;-55
2023/07/14 11:00:14;;;;;;;3.50;1.70;;;;;;;;;;5007978;28;20494;-55
2023/07/14 11:02:44;;;;;;;3.03;2.00;;;;;;;;;;5010655;28;20454;-55
2023/07/14 11:05:13;;;;;;;2.37;1.47;;;;;;;;;;5011474;28;20522;-55
2023/07/14 11:07:40;;;;;;;2.60;2.10;;;;;;;;;;5011221;28;20463;-55
2023/07/14 11:10:13;;;;;;;2.50;1.70;;;;;;;;;;5011718;28;20474;-55
2023/07/14 11:12:46;;;;;;;2.90;1.70;;;;;;;;;;5009682;28;21038;-54
2023/07/14 11:15:20;;;;;;;2.90;1.67;;;;;;;;;;5009774;28;20471;-54
2023/07/14 11:17:51;;;;;;;2.60;1.80;;;;;;;;;;5010911;28;20477;-55
2023/07/14 11:20:21;;;;;;;2.90;1.67;;;;;;;;;;5011730;28;20450;-55
2023/07/14 11:22:54;;;;;;;2.40;1.70;;;;;;;;;;4992024;28;20815;-55
2023/07/14 11:25:23;;;;;;;2.50;1.80;;;;;;;;;;5000576;28;20450;-55
2023/07/14 11:27:55;;;;;;;3.10;2.13;;;;;;;;;;5011040;28;20553;-54
2023/07/14 11:30:27;;;;;;;3.20;1.80;;;;;;;;;;5011131;28;20451;-55
2023/07/14 11:32:59;;;;;;;2.33;1.53;;;;;;;;;;5010122;28;20502;-55
2023/07/14 11:35:31;;;;;;;2.20;1.50;;;;;;;;;;5009357;28;21015;-55
2023/07/14 11:38:05;;;;;;;3.13;1.90;;;;;;;;;;4994407;28;20474;-55
2023/07/14 11:40:36;;;;;;;3.57;1.73;;;;;;;;;;4991468;28;20927;-54
2023/07/14 11:43:04;;;;;;;4.13;1.87;;;;;;;;;;4990619;28;20527;-55
2023/07/14 11:45:33;;;;;;;2.77;1.93;;;;;;;;;;4991382;28;20899;-55
2023/07/14 11:48:02;;;;;;;2.80;1.87;;;;;;;;;;4989621;28;20905;-55
2023/07/14 11:50:30;;;;;;;4.47;2.53;;;;;;;;;;4991539;28;20941;-55
2023/07/14 11:53:01;;;;;;;2.77;1.80;;;;;;;;;;4991754;28;20593;-55
2023/07/14 11:55:30;;;;;;;2.87;1.57;;;;;;;;;;4991650;28;20448;-55
2023/07/14 11:58:05;;;;;;;2.30;1.50;;;;;;;;;;4991594;28;20468;-54
2023/07/14 12:00:39;;;;;;;2.93;1.83;;;;;;;;;;4991926;28;20490;-54
2023/07/14 12:03:09;;;;;;;3.10;1.57;;;;;;;;;;4991014;28;20523;-55
2023/07/14 12:05:38;;;;;;;2.40;1.70;;;;;;;;;;4991520;28;20443;-55
2023/07/14 12:08:13;;;;;;;2.90;1.87;;;;;;;;;;4991647;28;20500;-55
2023/07/14 12:10:47;;;;;;;2.80;1.93;;;;;;;;;;4991588;28;20458;-55
2023/07/14 12:13:23;;;;;;;2.73;1.70;;;;;;;;;;4990942;28;20479;-55
2023/07/14 12:16:05;;;;;;;2.70;2.10;;;;;;;;;;4991308;28;20467;-55
2023/07/14 12:18:34;;;;;;;2.53;1.97;;;;;;;;;;4991497;28;20476;-55
2023/07/14 12:21:20;;;;;;;2.60;1.80;;;;;;;;;;4991329;28;20448;-55
2023/07/14 12:23:49;;;;;;;2.70;1.57;;;;;;;;;;4991023;28;20470;-55
2023/07/14 12:26:17;;;;;;;2.80;1.80;;;;;;;;;;4991518;28;20555;-55
2023/07/14 12:28:45;;;;;;;3.30;1.77;;;;;;;;;;4993138;28;20510;-55
2023/07/14 12:31:14;;;;;;;3.47;2.00;;;;;;;;;;4995158;28;20487;-55
2023/07/14 12:33:41;;;;;;;5.37;1.70;;;;;;;;;;4994872;28;20511;-55
2023/07/14 12:36:15;;;;;;;2.70;1.80;;;;;;;;;;4994955;28;20547;-55
2023/07/14 12:38:45;;;;;;;3.53;2.40;;;;;;;;;;4995448;28;20455;-55
2023/07/14 12:41:12;;;;;;;2.90;2.00;;;;;;;;;;4994716;28;20526;-55
2023/07/14 12:43:41;;;;;;;2.63;1.93;;;;;;;;;;4993912;28;20451;-54
2023/07/14 12:46:13;;;;;;;2.40;1.93;;;;;;;;;;4994896;28;20467;-55
2023/07/14 12:48:43;;;;;;;4.03;2.20;;;;;;;;;;4994916;28;20443;-55
2023/07/14 12:51:16;;;;;;;2.83;2.00;;;;;;;;;;4994936;28;20535;-55
2023/07/14 12:53:43;;;;;;;3.00;1.70;;;;;;;;;;4994640;28;20483;-55
2023/07/14 12:56:14;;;;;;;3.70;1.97;;;;;;;;;;4994592;28;20492;-55
2023/07/14 12:58:41;;;;;;;3.37;2.33;;;;;;;;;;4994871;28;20500;-55
2023/07/14 13:01:09;;;;;;;2.80;1.83;;;;;;;;;;4994600;28;20464;-55
2023/07/14 13:03:37;;;;;;;3.43;2.40;;;;;;;;;;4994273;28;20444;-55
2023/07/14 13:06:06;;;;;;;2.77;1.90;;;;;;;;;;4994891;28;20539;-55
2023/07/14 13:08:33;;;;;;;2.73;2.00;;;;;;;;;;4994381;28;20535;-55
2023/07/14 13:11:00;;;;;;;3.50;2.23;;;;;;;;;;4994697;28;20458;-54
2023/07/14 13:13:29;;;;;;;2.70;1.83;;;;;;;;;;4993877;28;20525;-55
2023/07/14 13:16:00;;;;;;;2.63;1.73;;;;;;;;;;4994271;28;20495;-55
2023/07/14 13:18:30;;;;;;;3.50;2.27;;;;;;;;;;4994328;28;20544;-55
2023/07/14 13:20:58;;;;;;;3.00;2.10;;;;;;;;;;4994357;28;20715;-55
2023/07/14 13:23:28;;;;;;;2.77;1.87;;;;;;;;;;4993874;28;20483;-55
2023/07/14 13:26:01;;;;;;;3.07;2.07;;;;;;;;;;4994456;28;20498;-55
2023/07/14 13:28:28;;;;;;;7.20;1.90;;;;;;;;;;4994166;28;20531;-55
2023/07/14 13:30:55;;;;;;;3.03;2.20;;;;;;;;;;4993911;28;20451;-55
2023/07/14 13:33:25;;;;;;;2.80;2.07;;;;;;;;;;4994921;28;20476;-55
2023/07/14 13:35:55;;;;;;;2.90;2.00;;;;;;;;;;4994164;28;20886;-55
2023/07/14 13:38:22;;;;;;;2.60;1.90;;;;;;;;;;4994055;28;20490;-54
2023/07/14 13:40:53;;;;;;;3.23;1.70;;;;;;;;;;4993273;28;20919;-55
2023/07/14 13:43:21;;;;;;;3.60;1.87;;;;;;;;;;4992593;28;20512;-55
2023/07/14 13:45:57;;;;;;;3.40;1.90;;;;;;;;;;4993484;28;20940;-55
2023/07/14 13:48:25;;;;;;;2.83;1.97;;;;;;;;;;4993803;28;20475;-54
2023/07/14 13:50:53;;;;;;;2.80;2.00;;;;;;;;;;4993798;28;20483;-55
2023/07/14 13:53:23;;;;;;;2.57;1.60;;;;;;;;;;4993467;28;21035;-55
2023/07/14 13:55:51;;;;;;;3.80;1.90;;;;;;;;;;4993277;28;20483;-55
2023/07/14 13:58:19;;;;;;;2.80;1.90;;;;;;;;;;4993677;28;20483;-55
2023/07/14 14:00:47;;;;;;;2.63;1.90;;;;;;;;;;4993542;28;20543;-55
2023/07/14 14:03:16;;;;;;;3.67;2.20;;;;;;;;;;4993303;28;20491;-55
2023/07/14 14:05:46;;;;;;;3.27;2.17;;;;;;;;;;4993322;28;20953;-55
2023/07/14 14:08:15;;;;;;;3.67;2.00;;;;;;;;;;4993327;28;20447;-55
2023/07/14 14:10:42;;;;;;;4.67;1.53;;;;;;;;;;4993561;28;20454;-55
2023/07/14 14:13:10;;;;;;;2.73;1.80;;;;;;;;;;4992847;28;20882;-54
2023/07/14 14:15:41;;;;;;;2.73;2.03;;;;;;;;;;4993526;28;20531;-54
2023/07/14 14:18:11;;;;;;;2.77;1.90;;;;;;;;;;4993339;28;20503;-55
2023/07/14 14:20:38;;;;;;;2.63;1.97;;;;;;;;;;4993090;28;20528;-55
2023/07/14 14:23:06;;;;;;;2.73;1.80;;;;;;;;;;4992567;28;20530;-54
2023/07/14 14:25:34;;;;;;;2.67;1.93;;;;;;;;;;4993155;28;20940;-55
2023/07/14 14:28:03;;;;;;;2.90;2.10;;;;;;;;;;4993026;28;20547;-54
2023/07/14 14:30:32;;;;;;;3.57;2.20;;;;;;;;;;4993209;28;20448;-54
2023/07/14 14:33:01;;;;;;;3.03;1.80;;;;;;;;;;4992685;28;20531;-52
2023/07/14 14:35:30;;;;;;;3.63;1.83;;;;;;;;;;4992556;28;20487;-52
2023/07/14 14:37:58;;;;;;;4.27;2.03;;;;;;;;;;4992801;28;20888;-52
2023/07/14 14:40:25;;;;;;;2.80;1.83;;;;;;;;;;4992479;28;20821;-52
2023/07/14 14:42:54;;;;;;;2.80;2.07;;;;;;;;;;4991274;28;20523;-52
2023/07/14 14:45:22;;;;;;;3.27;2.20;;;;;;;;;;4992374;28;20535;-52
2023/07/14 14:47:50;;;;;;;3.50;2.00;;;;;;;;;;4991970;28;20596;-55
2023/07/14 14:50:19;;;;;;;2.90;1.70;;;;;;;;;;4992462;28;20452;-55
2023/07/14 14:52:46;;;;;;;3.13;2.17;;;;;;;;;;4991208;28;20448;-52